首页
METAR-TAF:

METAR-TAF

机场 :

潘狄頓區域機場

Penticton, 不列颠哥伦比亚, 加拿大

纬度: 49-28N, 经度: 119-36W, 海拔: 344米

当前天气观测

该预报发布于46分钟前的19:00 UTC
风速17节,风向,有时为25节阵风
温度 10°C
湿度 76%
气压 1016 hPa
能見度: 24.1公里
多云层高于2500英尺
多云层高于8000英尺
多云层高于24000英尺

METAR: CYYF 171900Z 18017G25KT 15SM BKN025 BKN080 BKN240 10/06 A2999 RMK SC5AC1CI1 CU EMBD SLP165

时间: 11:46 (19:46 UTC)

预报

该预报发布于1小时和8分钟前的18:38 UTC
预报有效从17日的 19点(UTC)到 18日的 07点(UTC)
风速12节,风向,有时为22节阵风
能見度: 10公里
散云层高于2000英尺
多云层高于4000英尺
短暂存在
从 17日的 19点(UTC)到 17日的 22点(UTC)
能見度: 10公里
多云层高于2000英尺
阴天层高于3000英尺
小雨
从 17日的 2200点(UTC)
风速12节,风向
能見度: 10公里
散云层高于2000英尺
几率 30%
从 17日的 22点(UTC)到 18日的 05点(UTC)
多云层高于2000英尺
从 18日的 0500点(UTC)
风速10节,风向
能見度: 10公里
散云层高于2000英尺
短暂存在
从 18日的 05点(UTC)到 18日的 07点(UTC)
多云层高于2000英尺

TAF: CYYF 171838Z 1719/1807 18012G22KT P6SM SCT020 BKN040 TEMPO 1719/1722 P6SM -RA BKN020 OVC030 FM172200 18012KT P6SM SCT020 PROB30 1722/1805 BKN020 FM180500 18010KT P6SM SCT020 TEMPO 1805/1807 BKN020 RMK NXT FCST BY 180100Z

超过4000个机场的气象观测和天气预报(METAR&TAF报告)。

可查询的气象台以黄色和红色小点在地图上表示。

将鼠标移到小点上方,可查看气象台名称。

然后点击查看天气观测和预报。

如需切换地图:点击带黑十字的绿色按钮放大地图;点击带横线的绿色按钮缩小地图;或者点击绿色箭头查看邻近地区的地图。


METAR-TAF: